sensor_id;sensor_type;location;lat;lon;timestamp;P1;durP1;ratioP1;P2;durP2;ratioP2
84517;SDS011;74754;43.386;0.044;2024-02-21T07:21:49;14.73;;;5.20;;
84517;SDS011;74754;43.386;0.044;2024-02-21T07:24:16;20.73;;;11.48;;
84517;SDS011;74754;43.386;0.044;2024-02-21T07:26:42;9.95;;;8.95;;
84517;SDS011;74754;43.386;0.044;2024-02-21T07:31:43;16.38;;;8.27;;
84517;SDS011;74754;43.386;0.044;2024-02-21T07:34:10;7.45;;;6.85;;
84517;SDS011;74754;43.386;0.044;2024-02-21T07:39:03;10.43;;;5.22;;
84517;SDS011;74754;43.386;0.044;2024-02-21T07:43:56;7.15;;;5.35;;
84517;SDS011;74754;43.386;0.044;2024-02-21T07:46:22;10.55;;;4.70;;
84517;SDS011;74754;43.386;0.044;2024-02-21T07:48:48;4.90;;;4.60;;
84517;SDS011;74754;43.386;0.044;2024-02-21T07:53:44;6.90;;;4.65;;
84517;SDS011;74754;43.386;0.044;2024-02-21T07:56:14;5.70;;;4.40;;
84517;SDS011;74754;43.386;0.044;2024-02-21T07:58:41;9.63;;;4.05;;
84517;SDS011;74754;43.386;0.044;2024-02-21T08:01:08;8.70;;;4.07;;
84517;SDS011;74754;43.386;0.044;2024-02-21T08:06:00;5.50;;;3.83;;
84517;SDS011;74754;43.386;0.044;2024-02-21T08:08:26;4.72;;;4.32;;
84517;SDS011;74754;43.386;0.044;2024-02-21T08:10:52;3.72;;;3.42;;
84517;SDS011;74754;43.386;0.044;2024-02-21T08:13:18;11.77;;;3.55;;
84517;SDS011;74754;43.386;0.044;2024-02-21T08:15:44;4.25;;;3.38;;
84517;SDS011;74754;43.386;0.044;2024-02-21T08:18:10;6.82;;;3.42;;
84517;SDS011;74754;43.386;0.044;2024-02-21T08:20:36;3.47;;;3.08;;
84517;SDS011;74754;43.386;0.044;2024-02-21T08:23:02;3.92;;;3.50;;
84517;SDS011;74754;43.386;0.044;2024-02-21T08:25:29;2.55;;;2.38;;
84517;SDS011;74754;43.386;0.044;2024-02-21T08:27:57;5.05;;;3.05;;
84517;SDS011;74754;43.386;0.044;2024-02-21T08:30:23;3.47;;;3.17;;
84517;SDS011;74754;43.386;0.044;2024-02-21T08:32:49;2.53;;;2.33;;
84517;SDS011;74754;43.386;0.044;2024-02-21T08:35:15;3.05;;;2.83;;
84517;SDS011;74754;43.386;0.044;2024-02-21T08:37:45;4.07;;;3.30;;
84517;SDS011;74754;43.386;0.044;2024-02-21T08:40:13;2.92;;;2.58;;
84517;SDS011;74754;43.386;0.044;2024-02-21T08:42:42;3.17;;;2.63;;
84517;SDS011;74754;43.386;0.044;2024-02-21T08:47:34;5.85;;;3.50;;
84517;SDS011;74754;43.386;0.044;2024-02-21T08:50:03;4.30;;;3.80;;
84517;SDS011;74754;43.386;0.044;2024-02-21T08:52:30;7.05;;;3.88;;
84517;SDS011;74754;43.386;0.044;2024-02-21T08:54:57;4.03;;;3.72;;
84517;SDS011;74754;43.386;0.044;2024-02-21T08:57:23;3.45;;;3.20;;
84517;SDS011;74754;43.386;0.044;2024-02-21T08:59:49;3.83;;;2.63;;
84517;SDS011;74754;43.386;0.044;2024-02-21T09:02:15;4.72;;;3.30;;
84517;SDS011;74754;43.386;0.044;2024-02-21T09:07:09;5.25;;;4.80;;
84517;SDS011;74754;43.386;0.044;2024-02-21T09:09:35;4.20;;;3.90;;
84517;SDS011;74754;43.386;0.044;2024-02-21T09:12:03;3.58;;;3.28;;
84517;SDS011;74754;43.386;0.044;2024-02-21T09:14:34;3.10;;;2.80;;
84517;SDS011;74754;43.386;0.044;2024-02-21T09:17:00;7.97;;;6.32;;
84517;SDS011;74754;43.386;0.044;2024-02-21T09:19:26;15.52;;;11.13;;
84517;SDS011;74754;43.386;0.044;2024-02-21T09:21:53;8.50;;;4.35;;
84517;SDS011;74754;43.386;0.044;2024-02-21T09:24:19;3.95;;;3.65;;
84517;SDS011;74754;43.386;0.044;2024-02-21T09:26:45;7.10;;;3.25;;
84517;SDS011;74754;43.386;0.044;2024-02-21T09:29:11;5.60;;;2.90;;
84517;SDS011;74754;43.386;0.044;2024-02-21T09:31:37;12.68;;;2.60;;
84517;SDS011;74754;43.386;0.044;2024-02-21T09:36:30;2.60;;;2.40;;
84517;SDS011;74754;43.386;0.044;2024-02-21T09:38:56;3.75;;;2.70;;
84517;SDS011;74754;43.386;0.044;2024-02-21T09:41:25;8.35;;;2.33;;
84517;SDS011;74754;43.386;0.044;2024-02-21T09:43:52;3.47;;;2.30;;
84517;SDS011;74754;43.386;0.044;2024-02-21T09:49:00;2.20;;;2.00;;
84517;SDS011;74754;43.386;0.044;2024-02-21T09:51:29;3.78;;;3.47;;
84517;SDS011;74754;43.386;0.044;2024-02-21T09:53:57;6.60;;;2.90;;
84517;SDS011;74754;43.386;0.044;2024-02-21T09:56:23;6.85;;;3.47;;
84517;SDS011;74754;43.386;0.044;2024-02-21T09:58:49;3.63;;;3.30;;
84517;SDS011;74754;43.386;0.044;2024-02-21T10:01:15;5.47;;;3.95;;
84517;SDS011;74754;43.386;0.044;2024-02-21T10:03:41;4.32;;;3.92;;
84517;SDS011;74754;43.386;0.044;2024-02-21T10:06:08;9.95;;;4.47;;
84517;SDS011;74754;43.386;0.044;2024-02-21T10:08:35;5.30;;;4.90;;
84517;SDS011;74754;43.386;0.044;2024-02-21T10:11:01;7.15;;;4.43;;
84517;SDS011;74754;43.386;0.044;2024-02-21T10:13:30;4.03;;;3.70;;
84517;SDS011;74754;43.386;0.044;2024-02-21T10:16:06;5.35;;;4.95;;
84517;SDS011;74754;43.386;0.044;2024-02-21T10:18:33;1.90;;;1.80;;
84517;SDS011;74754;43.386;0.044;2024-02-21T10:21:06;1.50;;;0.70;;
84517;SDS011;74754;43.386;0.044;2024-02-21T10:23:45;4.03;;;1.08;;
84517;SDS011;74754;43.386;0.044;2024-02-21T10:26:11;3.35;;;1.10;;
84517;SDS011;74754;43.386;0.044;2024-02-21T10:28:38;1.30;;;0.82;;
84517;SDS011;74754;43.386;0.044;2024-02-21T10:31:10;0.60;;;0.43;;
84517;SDS011;74754;43.386;0.044;2024-02-21T10:33:36;0.77;;;0.38;;
84517;SDS011;74754;43.386;0.044;2024-02-21T10:36:09;0.45;;;0.38;;
84517;SDS011;74754;43.386;0.044;2024-02-21T10:38:36;0.68;;;0.60;;
84517;SDS011;74754;43.386;0.044;2024-02-21T10:41:03;1.25;;;0.70;;
84517;SDS011;74754;43.386;0.044;2024-02-21T10:43:30;1.98;;;0.50;;
84517;SDS011;74754;43.386;0.044;2024-02-21T10:46:00;1.92;;;1.23;;
84517;SDS011;74754;43.386;0.044;2024-02-21T10:48:31;1.80;;;1.20;;
84517;SDS011;74754;43.386;0.044;2024-02-21T10:56:16;2.45;;;1.85;;
84517;SDS011;74754;43.386;0.044;2024-02-21T10:58:46;3.10;;;1.70;;
84517;SDS011;74754;43.386;0.044;2024-02-21T11:01:12;2.53;;;0.98;;
84517;SDS011;74754;43.386;0.044;2024-02-21T11:03:41;0.85;;;0.85;;
84517;SDS011;74754;43.386;0.044;2024-02-21T11:06:07;0.88;;;0.88;;
84517;SDS011;74754;43.386;0.044;2024-02-21T11:08:35;1.08;;;0.98;;
84517;SDS011;74754;43.386;0.044;2024-02-21T11:11:01;1.38;;;1.27;;
84517;SDS011;74754;43.386;0.044;2024-02-21T11:13:37;1.73;;;1.63;;
84517;SDS011;74754;43.386;0.044;2024-02-21T11:16:09;2.53;;;2.33;;
84517;SDS011;74754;43.386;0.044;2024-02-21T11:18:36;2.72;;;2.53;;
84517;SDS011;74754;43.386;0.044;2024-02-21T11:21:02;3.70;;;2.30;;
84517;SDS011;74754;43.386;0.044;2024-02-21T11:23:30;2.45;;;2.25;;
84517;SDS011;74754;43.386;0.044;2024-02-21T11:26:08;3.95;;;2.78;;
84517;SDS011;74754;43.386;0.044;2024-02-21T11:28:35;3.03;;;2.00;;
84517;SDS011;74754;43.386;0.044;2024-02-21T11:31:09;2.63;;;2.35;;
84517;SDS011;74754;43.386;0.044;2024-02-21T11:33:35;2.25;;;2.05;;
84517;SDS011;74754;43.386;0.044;2024-02-21T11:38:29;2.20;;;1.38;;
84517;SDS011;74754;43.386;0.044;2024-02-21T11:40:55;1.70;;;1.23;;
84517;SDS011;74754;43.386;0.044;2024-02-21T11:45:47;1.05;;;0.80;;
84517;SDS011;74754;43.386;0.044;2024-02-21T11:50:39;1.00;;;0.80;;
84517;SDS011;74754;43.386;0.044;2024-02-21T11:53:06;2.38;;;1.27;;
84517;SDS011;74754;43.386;0.044;2024-02-21T11:55:32;0.80;;;0.80;;
84517;SDS011;74754;43.386;0.044;2024-02-21T11:57:59;0.90;;;0.70;;
84517;SDS011;74754;43.386;0.044;2024-02-21T12:00:26;0.73;;;0.60;;
84517;SDS011;74754;43.386;0.044;2024-02-21T12:02:52;1.80;;;0.77;;
84517;SDS011;74754;43.386;0.044;2024-02-21T12:05:20;1.60;;;0.70;;
84517;SDS011;74754;43.386;0.044;2024-02-21T12:07:46;2.50;;;0.90;;
84517;SDS011;74754;43.386;0.044;2024-02-21T12:10:13;3.03;;;0.90;;
84517;SDS011;74754;43.386;0.044;2024-02-21T12:12:39;1.20;;;1.10;;
84517;SDS011;74754;43.386;0.044;2024-02-21T12:15:05;0.88;;;0.85;;
84517;SDS011;74754;43.386;0.044;2024-02-21T12:17:35;2.17;;;0.98;;
84517;SDS011;74754;43.386;0.044;2024-02-21T12:20:04;1.50;;;0.80;;
84517;SDS011;74754;43.386;0.044;2024-02-21T12:22:35;2.33;;;1.42;;
84517;SDS011;74754;43.386;0.044;2024-02-21T12:25:04;2.15;;;1.90;;
84517;SDS011;74754;43.386;0.044;2024-02-21T12:27:33;3.63;;;2.28;;
84517;SDS011;74754;43.386;0.044;2024-02-21T12:29:59;3.30;;;3.00;;
84517;SDS011;74754;43.386;0.044;2024-02-21T12:32:26;6.95;;;3.13;;
84517;SDS011;74754;43.386;0.044;2024-02-21T12:34:52;2.13;;;1.80;;
84517;SDS011;74754;43.386;0.044;2024-02-21T12:39:44;3.08;;;1.40;;
84517;SDS011;74754;43.386;0.044;2024-02-21T12:44:37;1.55;;;0.90;;
84517;SDS011;74754;43.386;0.044;2024-02-21T12:47:03;1.20;;;1.10;;
84517;SDS011;74754;43.386;0.044;2024-02-21T12:51:55;1.58;;;0.90;;
84517;SDS011;74754;43.386;0.044;2024-02-21T12:56:48;1.33;;;0.98;;
84517;SDS011;74754;43.386;0.044;2024-02-21T12:59:15;3.10;;;0.82;;
84517;SDS011;74754;43.386;0.044;2024-02-21T13:01:41;1.48;;;1.00;;
84517;SDS011;74754;43.386;0.044;2024-02-21T13:06:33;9.48;;;0.90;;
84517;SDS011;74754;43.386;0.044;2024-02-21T13:09:00;0.73;;;0.60;;
84517;SDS011;74754;43.386;0.044;2024-02-21T13:11:28;1.98;;;1.40;;
84517;SDS011;74754;43.386;0.044;2024-02-21T13:13:56;1.50;;;1.00;;
84517;SDS011;74754;43.386;0.044;2024-02-21T13:16:22;4.95;;;0.80;;
84517;SDS011;74754;43.386;0.044;2024-02-21T13:21:14;2.60;;;0.90;;
84517;SDS011;74754;43.386;0.044;2024-02-21T13:26:09;1.83;;;0.95;;
84517;SDS011;74754;43.386;0.044;2024-02-21T13:31:01;1.92;;;1.00;;
84517;SDS011;74754;43.386;0.044;2024-02-21T13:33:28;3.25;;;0.90;;
84517;SDS011;74754;43.386;0.044;2024-02-21T13:35:54;2.38;;;1.40;;
84517;SDS011;74754;43.386;0.044;2024-02-21T13:40:46;1.10;;;0.77;;
84517;SDS011;74754;43.386;0.044;2024-02-21T13:43:12;1.58;;;0.90;;
84517;SDS011;74754;43.386;0.044;2024-02-21T13:48:06;1.38;;;1.10;;
84517;SDS011;74754;43.386;0.044;2024-02-21T13:50:35;1.80;;;0.82;;
84517;SDS011;74754;43.386;0.044;2024-02-21T13:53:07;2.45;;;0.80;;
84517;SDS011;74754;43.386;0.044;2024-02-21T13:55:35;1.00;;;0.80;;
84517;SDS011;74754;43.386;0.044;2024-02-21T14:00:28;1.75;;;0.80;;
84517;SDS011;74754;43.386;0.044;2024-02-21T14:05:20;2.60;;;1.15;;
84517;SDS011;74754;43.386;0.044;2024-02-21T14:10:12;2.08;;;1.13;;
84517;SDS011;74754;43.386;0.044;2024-02-21T14:12:39;2.40;;;1.20;;
84517;SDS011;74754;43.386;0.044;2024-02-21T14:15:05;2.05;;;1.27;;
84517;SDS011;74754;43.386;0.044;2024-02-21T14:17:31;2.78;;;0.98;;
84517;SDS011;74754;43.386;0.044;2024-02-21T14:22:23;1.27;;;1.15;;
84517;SDS011;74754;43.386;0.044;2024-02-21T14:24:49;1.83;;;0.90;;
84517;SDS011;74754;43.386;0.044;2024-02-21T14:29:42;1.13;;;0.90;;
84517;SDS011;74754;43.386;0.044;2024-02-21T14:32:10;1.13;;;1.02;;
84517;SDS011;74754;43.386;0.044;2024-02-21T14:34:38;10.00;;;1.25;;
84517;SDS011;74754;43.386;0.044;2024-02-21T14:39:30;2.55;;;1.65;;
84517;SDS011;74754;43.386;0.044;2024-02-21T14:41:59;1.02;;;0.88;;
84517;SDS011;74754;43.386;0.044;2024-02-21T14:46:52;1.38;;;0.80;;
84517;SDS011;74754;43.386;0.044;2024-02-21T14:49:18;2.20;;;0.98;;
84517;SDS011;74754;43.386;0.044;2024-02-21T14:54:10;1.67;;;0.70;;
84517;SDS011;74754;43.386;0.044;2024-02-21T14:59:04;1.98;;;1.20;;
84517;SDS011;74754;43.386;0.044;2024-02-21T15:01:35;4.20;;;2.97;;
84517;SDS011;74754;43.386;0.044;2024-02-21T15:04:03;10.02;;;3.58;;
84517;SDS011;74754;43.386;0.044;2024-02-21T15:06:29;9.60;;;5.07;;
84517;SDS011;74754;43.386;0.044;2024-02-21T15:08:57;6.88;;;3.13;;
84517;SDS011;74754;43.386;0.044;2024-02-21T15:11:23;4.10;;;3.22;;
84517;SDS011;74754;43.386;0.044;2024-02-21T15:16:15;13.23;;;8.82;;
84517;SDS011;74754;43.386;0.044;2024-02-21T15:21:07;3.53;;;3.22;;
84517;SDS011;74754;43.386;0.044;2024-02-21T15:23:38;11.75;;;7.57;;
84517;SDS011;74754;43.386;0.044;2024-02-21T15:28:30;7.38;;;3.30;;
84517;SDS011;74754;43.386;0.044;2024-02-21T15:33:22;3.88;;;3.47;;
84517;SDS011;74754;43.386;0.044;2024-02-21T15:35:49;3.33;;;3.13;;
84517;SDS011;74754;43.386;0.044;2024-02-21T15:38:15;3.92;;;3.35;;
84517;SDS011;74754;43.386;0.044;2024-02-21T15:40:41;4.32;;;3.63;;
84517;SDS011;74754;43.386;0.044;2024-02-21T15:45:33;7.93;;;6.47;;
84517;SDS011;74754;43.386;0.044;2024-02-21T15:48:00;10.88;;;6.43;;
84517;SDS011;74754;43.386;0.044;2024-02-21T15:52:53;8.18;;;3.15;;
84517;SDS011;74754;43.386;0.044;2024-02-21T15:55:22;4.07;;;2.78;;
84517;SDS011;74754;43.386;0.044;2024-02-21T15:57:48;4.63;;;3.83;;
84517;SDS011;74754;43.386;0.044;2024-02-21T16:00:15;18.35;;;3.42;;
84517;SDS011;74754;43.386;0.044;2024-02-21T16:05:10;2.30;;;1.67;;
84517;SDS011;74754;43.386;0.044;2024-02-21T16:07:39;12.73;;;4.85;;
84517;SDS011;74754;43.386;0.044;2024-02-21T16:10:05;3.45;;;2.33;;
84517;SDS011;74754;43.386;0.044;2024-02-21T16:12:32;3.13;;;2.88;;
84517;SDS011;74754;43.386;0.044;2024-02-21T16:14:58;5.35;;;4.68;;
84517;SDS011;74754;43.386;0.044;2024-02-21T16:19:50;23.83;;;11.40;;
84517;SDS011;74754;43.386;0.044;2024-02-21T16:24:43;8.23;;;3.55;;
84517;SDS011;74754;43.386;0.044;2024-02-21T16:29:35;14.88;;;8.98;;
84517;SDS011;74754;43.386;0.044;2024-02-21T16:32:01;8.77;;;6.13;;
84517;SDS011;74754;43.386;0.044;2024-02-21T16:36:56;5.78;;;2.85;;
84517;SDS011;74754;43.386;0.044;2024-02-21T16:39:23;6.18;;;2.13;;
84517;SDS011;74754;43.386;0.044;2024-02-21T16:41:49;4.75;;;2.60;;
84517;SDS011;74754;43.386;0.044;2024-02-21T16:44:18;2.70;;;2.05;;
84517;SDS011;74754;43.386;0.044;2024-02-21T16:46:45;3.90;;;2.20;;
84517;SDS011;74754;43.386;0.044;2024-02-21T16:51:38;7.00;;;5.47;;
84517;SDS011;74754;43.386;0.044;2024-02-21T16:56:33;13.68;;;5.88;;
84517;SDS011;74754;43.386;0.044;2024-02-21T16:59:01;7.43;;;4.22;;
84517;SDS011;74754;43.386;0.044;2024-02-21T17:01:28;21.98;;;7.28;;
84517;SDS011;74754;43.386;0.044;2024-02-21T17:06:20;7.68;;;5.15;;
84517;SDS011;74754;43.386;0.044;2024-02-21T17:08:46;18.27;;;5.25;;
84517;SDS011;74754;43.386;0.044;2024-02-21T17:11:13;16.92;;;5.10;;
84517;SDS011;74754;43.386;0.044;2024-02-21T17:16:05;12.65;;;5.63;;
84517;SDS011;74754;43.386;0.044;2024-02-21T17:18:31;6.38;;;5.78;;
84517;SDS011;74754;43.386;0.044;2024-02-21T17:23:23;17.00;;;6.22;;
84517;SDS011;74754;43.386;0.044;2024-02-21T17:28:16;8.40;;;4.60;;
84517;SDS011;74754;43.386;0.044;2024-02-21T17:33:08;11.00;;;7.03;;
84517;SDS011;74754;43.386;0.044;2024-02-21T17:35:34;15.45;;;7.28;;
84517;SDS011;74754;43.386;0.044;2024-02-21T17:40:26;15.48;;;10.75;;
84517;SDS011;74754;43.386;0.044;2024-02-21T17:42:52;19.13;;;10.43;;
84517;SDS011;74754;43.386;0.044;2024-02-21T17:45:18;12.88;;;11.30;;
84517;SDS011;74754;43.386;0.044;2024-02-21T17:50:12;10.93;;;8.93;;
84517;SDS011;74754;43.386;0.044;2024-02-21T17:52:38;22.77;;;8.23;;
84517;SDS011;74754;43.386;0.044;2024-02-21T17:55:04;10.85;;;7.28;;
84517;SDS011;74754;43.386;0.044;2024-02-21T17:57:31;14.07;;;8.43;;
84517;SDS011;74754;43.386;0.044;2024-02-21T17:59:57;34.47;;;16.08;;
84517;SDS011;74754;43.386;0.044;2024-02-21T18:02:24;56.72;;;22.60;;
84517;SDS011;74754;43.386;0.044;2024-02-21T18:04:51;30.73;;;13.65;;
84517;SDS011;74754;43.386;0.044;2024-02-21T18:09:45;32.47;;;13.48;;
84517;SDS011;74754;43.386;0.044;2024-02-21T18:12:12;18.55;;;10.77;;
84517;SDS011;74754;43.386;0.044;2024-02-21T18:14:38;18.38;;;12.07;;
84517;SDS011;74754;43.386;0.044;2024-02-21T18:17:04;23.33;;;14.05;;
84517;SDS011;74754;43.386;0.044;2024-02-21T18:19:33;26.25;;;14.95;;
84517;SDS011;74754;43.386;0.044;2024-02-21T18:22:03;17.33;;;11.25;;
84517;SDS011;74754;43.386;0.044;2024-02-21T18:26:58;9.65;;;8.50;;
84517;SDS011;74754;43.386;0.044;2024-02-21T18:29:25;10.35;;;8.57;;
84517;SDS011;74754;43.386;0.044;2024-02-21T18:31:52;12.55;;;9.20;;
84517;SDS011;74754;43.386;0.044;2024-02-21T18:34:19;11.52;;;9.95;;
84517;SDS011;74754;43.386;0.044;2024-02-21T18:36:45;23.15;;;9.35;;
84517;SDS011;74754;43.386;0.044;2024-02-21T18:39:12;30.08;;;17.20;;
84517;SDS011;74754;43.386;0.044;2024-02-21T18:41:39;27.45;;;16.17;;
84517;SDS011;74754;43.386;0.044;2024-02-21T18:44:08;17.65;;;13.18;;
84517;SDS011;74754;43.386;0.044;2024-02-21T18:46:37;8.48;;;7.35;;
84517;SDS011;74754;43.386;0.044;2024-02-21T18:49:04;8.77;;;8.00;;
84517;SDS011;74754;43.386;0.044;2024-02-21T18:51:30;19.17;;;12.38;;
84517;SDS011;74754;43.386;0.044;2024-02-21T18:53:59;16.77;;;14.38;;
84517;SDS011;74754;43.386;0.044;2024-02-21T18:56:28;22.75;;;15.88;;
84517;SDS011;74754;43.386;0.044;2024-02-21T18:58:54;19.23;;;12.65;;
84517;SDS011;74754;43.386;0.044;2024-02-21T19:01:21;32.05;;;19.08;;
84517;SDS011;74754;43.386;0.044;2024-02-21T19:03:47;31.83;;;19.75;;
84517;SDS011;74754;43.386;0.044;2024-02-21T19:08:44;39.95;;;19.60;;
84517;SDS011;74754;43.386;0.044;2024-02-21T19:11:11;31.52;;;17.92;;
84517;SDS011;74754;43.386;0.044;2024-02-21T19:13:37;29.92;;;14.55;;
84517;SDS011;74754;43.386;0.044;2024-02-21T19:18:29;11.95;;;10.13;;
84517;SDS011;74754;43.386;0.044;2024-02-21T19:20:56;16.30;;;10.15;;
84517;SDS011;74754;43.386;0.044;2024-02-21T19:25:48;26.40;;;14.65;;
84517;SDS011;74754;43.386;0.044;2024-02-21T19:28:15;31.70;;;20.35;;
84517;SDS011;74754;43.386;0.044;2024-02-21T19:30:43;25.55;;;18.17;;
84517;SDS011;74754;43.386;0.044;2024-02-21T19:33:09;13.20;;;11.57;;
84517;SDS011;74754;43.386;0.044;2024-02-21T19:35:35;13.95;;;12.73;;
84517;SDS011;74754;43.386;0.044;2024-02-21T19:38:02;19.98;;;12.57;;
84517;SDS011;74754;43.386;0.044;2024-02-21T19:42:56;12.07;;;10.93;;
84517;SDS011;74754;43.386;0.044;2024-02-21T19:45:22;11.18;;;10.27;;
84517;SDS011;74754;43.386;0.044;2024-02-21T19:47:50;9.60;;;8.82;;
84517;SDS011;74754;43.386;0.044;2024-02-21T19:50:16;10.48;;;7.30;;
84517;SDS011;74754;43.386;0.044;2024-02-21T19:52:46;8.25;;;6.40;;
84517;SDS011;74754;43.386;0.044;2024-02-21T19:55:16;6.10;;;5.50;;
84517;SDS011;74754;43.386;0.044;2024-02-21T20:00:09;5.53;;;4.18;;
84517;SDS011;74754;43.386;0.044;2024-02-21T20:02:36;5.03;;;4.47;;
84517;SDS011;74754;43.386;0.044;2024-02-21T20:05:02;5.97;;;4.68;;
84517;SDS011;74754;43.386;0.044;2024-02-21T20:09:54;4.72;;;4.25;;
84517;SDS011;74754;43.386;0.044;2024-02-21T20:12:20;6.70;;;4.55;;
84517;SDS011;74754;43.386;0.044;2024-02-21T20:14:49;4.35;;;3.78;;
84517;SDS011;74754;43.386;0.044;2024-02-21T20:17:15;3.95;;;3.63;;
84517;SDS011;74754;43.386;0.044;2024-02-21T20:19:41;11.85;;;6.47;;
84517;SDS011;74754;43.386;0.044;2024-02-21T20:22:07;4.72;;;4.30;;
84517;SDS011;74754;43.386;0.044;2024-02-21T20:24:33;6.82;;;5.25;;
84517;SDS011;74754;43.386;0.044;2024-02-21T20:27:00;8.48;;;4.40;;
84517;SDS011;74754;43.386;0.044;2024-02-21T20:29:26;5.25;;;4.85;;
84517;SDS011;74754;43.386;0.044;2024-02-21T20:34:20;4.35;;;4.00;;
84517;SDS011;74754;43.386;0.044;2024-02-21T20:36:49;9.63;;;3.97;;
84517;SDS011;74754;43.386;0.044;2024-02-21T20:39:15;4.25;;;3.95;;
84517;SDS011;74754;43.386;0.044;2024-02-21T20:41:43;4.68;;;4.30;;
84517;SDS011;74754;43.386;0.044;2024-02-21T20:44:10;5.07;;;4.68;;
84517;SDS011;74754;43.386;0.044;2024-02-21T20:46:36;6.20;;;5.70;;
84517;SDS011;74754;43.386;0.044;2024-02-21T20:49:02;6.35;;;5.75;;
84517;SDS011;74754;43.386;0.044;2024-02-21T20:51:28;7.55;;;6.95;;
84517;SDS011;74754;43.386;0.044;2024-02-21T20:53:54;7.32;;;6.20;;
84517;SDS011;74754;43.386;0.044;2024-02-21T20:56:21;7.15;;;6.57;;
84517;SDS011;74754;43.386;0.044;2024-02-21T20:58:47;8.18;;;7.55;;
84517;SDS011;74754;43.386;0.044;2024-02-21T21:01:14;9.52;;;6.60;;
84517;SDS011;74754;43.386;0.044;2024-02-21T21:03:40;10.77;;;9.70;;
84517;SDS011;74754;43.386;0.044;2024-02-21T21:06:06;6.82;;;6.32;;
84517;SDS011;74754;43.386;0.044;2024-02-21T21:08:33;8.55;;;6.82;;
84517;SDS011;74754;43.386;0.044;2024-02-21T21:10:59;6.97;;;6.38;;
84517;SDS011;74754;43.386;0.044;2024-02-21T21:15:51;5.80;;;5.30;;
84517;SDS011;74754;43.386;0.044;2024-02-21T21:18:17;6.47;;;5.88;;
84517;SDS011;74754;43.386;0.044;2024-02-21T21:23:10;7.07;;;6.38;;
84517;SDS011;74754;43.386;0.044;2024-02-21T21:28:04;7.53;;;6.90;;
84517;SDS011;74754;43.386;0.044;2024-02-21T21:30:32;6.72;;;6.13;;
84517;SDS011;74754;43.386;0.044;2024-02-21T21:32:59;10.40;;;9.48;;
84517;SDS011;74754;43.386;0.044;2024-02-21T21:35:25;13.90;;;12.50;;
84517;SDS011;74754;43.386;0.044;2024-02-21T21:37:52;8.68;;;4.28;;
84517;SDS011;74754;43.386;0.044;2024-02-21T21:40:18;4.93;;;4.53;;
84517;SDS011;74754;43.386;0.044;2024-02-21T21:42:44;7.35;;;5.38;;
84517;SDS011;74754;43.386;0.044;2024-02-21T21:45:10;5.65;;;5.20;;
84517;SDS011;74754;43.386;0.044;2024-02-21T21:47:37;6.40;;;5.90;;
84517;SDS011;74754;43.386;0.044;2024-02-21T21:50:03;6.18;;;5.68;;
84517;SDS011;74754;43.386;0.044;2024-02-21T21:54:56;6.47;;;5.88;;
84517;SDS011;74754;43.386;0.044;2024-02-21T21:57:22;6.85;;;6.35;;
84517;SDS011;74754;43.386;0.044;2024-02-21T21:59:49;6.18;;;5.70;;
84517;SDS011;74754;43.386;0.044;2024-02-21T22:04:41;40.83;;;20.83;;
84517;SDS011;74754;43.386;0.044;2024-02-21T22:07:07;13.27;;;11.85;;
84517;SDS011;74754;43.386;0.044;2024-02-21T22:09:33;14.43;;;11.00;;
84517;SDS011;74754;43.386;0.044;2024-02-21T22:12:00;14.38;;;10.85;;
84517;SDS011;74754;43.386;0.044;2024-02-21T22:14:26;7.45;;;6.70;;
84517;SDS011;74754;43.386;0.044;2024-02-21T22:16:52;6.57;;;6.05;;
84517;SDS011;74754;43.386;0.044;2024-02-21T22:19:20;10.77;;;6.03;;
84517;SDS011;74754;43.386;0.044;2024-02-21T22:21:46;6.03;;;5.63;;
84517;SDS011;74754;43.386;0.044;2024-02-21T22:24:12;6.25;;;5.53;;
84517;SDS011;74754;43.386;0.044;2024-02-21T22:26:38;6.28;;;5.63;;
84517;SDS011;74754;43.386;0.044;2024-02-21T22:31:31;7.75;;;7.15;;
84517;SDS011;74754;43.386;0.044;2024-02-21T22:33:57;18.50;;;14.02;;
84517;SDS011;74754;43.386;0.044;2024-02-21T22:36:23;22.15;;;16.20;;
84517;SDS011;74754;43.386;0.044;2024-02-21T22:38:50;33.17;;;20.17;;
84517;SDS011;74754;43.386;0.044;2024-02-21T22:41:16;23.60;;;13.13;;
84517;SDS011;74754;43.386;0.044;2024-02-21T22:43:44;5.72;;;5.30;;
84517;SDS011;74754;43.386;0.044;2024-02-21T22:48:36;11.88;;;10.73;;
84517;SDS011;74754;43.386;0.044;2024-02-21T22:53:28;7.13;;;6.35;;
84517;SDS011;74754;43.386;0.044;2024-02-21T22:55:55;8.23;;;6.93;;
84517;SDS011;74754;43.386;0.044;2024-02-21T22:58:21;7.95;;;7.35;;
84517;SDS011;74754;43.386;0.044;2024-02-21T23:03:13;8.15;;;7.45;;
84517;SDS011;74754;43.386;0.044;2024-02-21T23:05:40;10.60;;;6.32;;
84517;SDS011;74754;43.386;0.044;2024-02-21T23:08:06;6.75;;;6.15;;
84517;SDS011;74754;43.386;0.044;2024-02-21T23:10:33;8.43;;;7.43;;
84517;SDS011;74754;43.386;0.044;2024-02-21T23:13:00;9.27;;;8.57;;
84517;SDS011;74754;43.386;0.044;2024-02-21T23:15:26;8.88;;;7.93;;
84517;SDS011;74754;43.386;0.044;2024-02-21T23:17:53;16.00;;;8.70;;
84517;SDS011;74754;43.386;0.044;2024-02-21T23:22:45;7.80;;;7.15;;
84517;SDS011;74754;43.386;0.044;2024-02-21T23:25:11;11.23;;;10.20;;
84517;SDS011;74754;43.386;0.044;2024-02-21T23:27:38;7.47;;;6.90;;
84517;SDS011;74754;43.386;0.044;2024-02-21T23:30:05;8.57;;;6.80;;
84517;SDS011;74754;43.386;0.044;2024-02-21T23:32:36;7.40;;;6.85;;
84517;SDS011;74754;43.386;0.044;2024-02-21T23:35:03;7.97;;;7.28;;
84517;SDS011;74754;43.386;0.044;2024-02-21T23:37:30;12.82;;;9.43;;
84517;SDS011;74754;43.386;0.044;2024-02-21T23:39:56;10.57;;;8.75;;
84517;SDS011;74754;43.386;0.044;2024-02-21T23:42:22;9.23;;;8.48;;
84517;SDS011;74754;43.386;0.044;2024-02-21T23:44:48;9.20;;;8.35;;
84517;SDS011;74754;43.386;0.044;2024-02-21T23:47:16;9.82;;;9.05;;
84517;SDS011;74754;43.386;0.044;2024-02-21T23:49:42;15.02;;;8.07;;
84517;SDS011;74754;43.386;0.044;2024-02-21T23:52:08;9.77;;;8.90;;
84517;SDS011;74754;43.386;0.044;2024-02-21T23:54:34;10.77;;;9.68;;
84517;SDS011;74754;43.386;0.044;2024-02-21T23:57:00;9.52;;;8.75;;
84517;SDS011;74754;43.386;0.044;2024-02-21T23:59:27;11.82;;;7.75;;
